Time;durP1;ratioP1;P1;durP2;ratioP2;P2;SDS_P1;SDS_P2;PMS_P1;PMS_P2;Temp;Humidity;BMP_temperature;BMP_pressure;BME280_temperature;BME280_humidity;BME280_pressure;Samples;Min_cycle;Max_cycle;Signal;HPM_P1;HPM_P2
2022/06/13 00:00:19;;;;;;;6.75;2.45;;;16.40;66.70;;;;;;4939711;29;20055;-86
2022/06/13 00:02:45;;;;;;;;;;;16.30;66.80;;;;;;4942310;29;20043;-86
2022/06/13 00:05:12;;;;;;;7.97;2.63;;;16.30;67.00;;;;;;4955334;28;20409;-86
2022/06/13 00:07:37;;;;;;;7.82;3.00;;;16.30;66.60;;;;;;4940987;29;20024;-86
2022/06/13 00:10:03;;;;;;;7.88;2.45;;;16.30;67.10;;;;;;4937969;29;20020;-86
2022/06/13 00:12:29;;;;;;;11.20;2.95;;;16.30;67.10;;;;;;4941149;29;20067;-86
2022/06/13 00:14:54;;;;;;;11.85;3.10;;;16.30;67.10;;;;;;4939493;29;20035;-86
2022/06/13 00:17:20;;;;;;;6.70;3.00;;;16.30;67.00;;;;;;4948853;29;20023;-86
2022/06/13 00:19:46;;;;;;;9.88;3.10;;;16.30;67.20;;;;;;4968009;28;20039;-86
2022/06/13 00:22:11;;;;;;;9.55;3.47;;;16.20;67.40;;;;;;4972786;28;20034;-86
2022/06/13 00:24:38;;;;;;;6.53;2.72;;;16.20;67.80;;;;;;4966703;28;20047;-86
2022/06/13 00:27:04;;;;;;;8.52;3.08;;;16.20;67.40;;;;;;4938675;29;20024;-86
2022/06/13 00:29:30;;;;;;;9.18;2.90;;;16.10;68.00;;;;;;4941260;29;20522;-86
2022/06/13 00:31:55;;;;;;;13.68;3.00;;;16.10;68.30;;;;;;4953591;29;20028;-86
2022/06/13 00:34:21;;;;;;;10.73;3.13;;;16.10;68.80;;;;;;4954674;29;20035;-86
2022/06/13 00:36:47;;;;;;;9.63;3.40;;;16.00;68.70;;;;;;4960805;28;20031;-86
2022/06/13 00:39:13;;;;;;;8.63;3.13;;;16.00;68.40;;;;;;4956903;28;20047;-87
2022/06/13 00:41:41;;;;;;;9.05;2.55;;;16.10;67.80;;;;;;4944791;28;20051;-86
2022/06/13 00:44:18;;;;;;;14.52;3.75;;;16.00;68.40;;;;;;4953504;28;20072;-86
2022/06/13 00:46:44;;;;;;;12.20;2.70;;;15.90;68.90;;;;;;4939328;29;20035;-86
2022/06/13 00:49:38;;;;;;;6.15;2.72;;;15.80;68.70;;;;;;4953353;28;20126;-86
2022/06/13 00:52:26;;;;;;;16.55;3.58;;;15.90;68.70;;;;;;4939901;29;20024;-86
2022/06/13 00:54:53;;;;;;;6.72;3.00;;;15.80;69.20;;;;;;4928628;29;20040;-86
2022/06/13 00:57:26;;;;;;;11.20;3.10;;;15.80;69.10;;;;;;4938331;29;20390;-86
2022/06/13 00:59:56;;;;;;;10.10;3.13;;;15.80;69.30;;;;;;4939090;29;20038;-86
2022/06/13 01:02:22;;;;;;;12.90;3.30;;;15.70;69.90;;;;;;4938645;29;20015;-85
2022/06/13 01:04:51;;;;;;;13.93;4.10;;;15.80;70.10;;;;;;4940413;29;20087;-86
2022/06/13 01:07:18;;;;;;;10.32;3.90;;;15.80;70.10;;;;;;4952892;29;20055;-86
2022/06/13 01:12:29;;;;;;;18.15;4.28;;;15.70;69.90;;;;;;4938494;29;20083;-85
2022/06/13 01:15:16;;;;;;;11.15;3.75;;;15.80;70.00;;;;;;4940039;29;20031;-86
2022/06/13 01:17:48;;;;;;;12.57;3.25;;;15.80;69.80;;;;;;4945331;29;20094;-86
2022/06/13 01:20:45;;;;;;;13.10;3.85;;;15.80;69.80;;;;;;4940613;28;20059;-85
2022/06/13 01:23:35;;;;;;;16.50;4.18;;;15.80;69.80;;;;;;4957308;29;20066;-85
2022/06/13 01:26:23;;;;;;;10.23;2.63;;;15.80;69.80;;;;;;4968363;28;20502;-85
2022/06/13 01:29:12;;;;;;;12.50;3.63;;;15.80;70.30;;;;;;4938208;29;20108;-85
2022/06/13 01:31:54;;;;;;;11.98;3.17;;;15.70;69.60;;;;;;4953496;28;20031;-85
2022/06/13 01:34:37;;;;;;;21.52;5.10;;;15.70;70.70;;;;;;4966545;28;20118;-86
2022/06/13 01:37:18;;;;;;;12.50;3.35;;;15.60;70.50;;;;;;4946602;29;20670;-85
2022/06/13 01:40:04;;;;;;;14.70;3.25;;;15.70;70.20;;;;;;4957165;28;20030;-86
2022/06/13 01:42:39;;;;;;;9.48;2.97;;;15.60;70.60;;;;;;4955568;28;20461;-85
2022/06/13 01:45:04;;;;;;;7.22;2.90;;;15.60;70.70;;;;;;4943084;28;20074;-85
2022/06/13 01:47:43;;;;;;;12.00;3.38;;;15.60;71.00;;;;;;4937723;29;20111;-85
2022/06/13 01:50:26;;;;;;;7.47;3.10;;;15.60;70.60;;;;;;4939935;29;20031;-85
2022/06/13 01:53:16;;;;;;;12.50;3.80;;;15.60;70.40;;;;;;4937837;29;20024;-85
2022/06/13 01:55:54;;;;;;;7.95;3.40;;;15.60;70.50;;;;;;4942826;29;20034;-85
2022/06/13 01:59:02;;;;;;;10.57;3.55;;;15.50;70.70;;;;;;4955606;28;20036;-85
2022/06/13 02:01:45;;;;;;;11.63;3.80;;;15.50;71.10;;;;;;4957364;28;20070;-86
2022/06/13 02:04:22;;;;;;;10.43;3.63;;;15.50;70.90;;;;;;4954888;28;20039;-85
2022/06/13 02:07:00;;;;;;;10.45;3.30;;;15.60;71.40;;;;;;4939777;29;20035;-85
2022/06/13 02:09:36;;;;;;;14.82;3.97;;;15.50;70.30;;;;;;4937598;29;20039;-85
2022/06/13 02:12:02;;;;;;;12.68;3.00;;;15.50;70.40;;;;;;4939663;29;20102;-86
2022/06/13 02:14:45;;;;;;;16.25;4.47;;;15.50;70.90;;;;;;4951326;29;20035;-85
2022/06/13 02:17:32;;;;;;;11.52;3.70;;;15.40;70.50;;;;;;4955962;28;20031;-85
2022/06/13 02:20:15;;;;;;;10.43;4.25;;;15.40;70.30;;;;;;4955641;28;20500;-84
2022/06/13 02:22:53;;;;;;;9.43;3.55;;;15.40;70.90;;;;;;4955017;28;20142;-85
2022/06/13 02:25:37;;;;;;;11.75;3.15;;;15.30;71.40;;;;;;4956791;28;20034;-85
2022/06/13 02:28:11;;;;;;;7.63;3.25;;;15.20;71.70;;;;;;4956614;28;20062;-85
2022/06/13 02:30:55;;;;;;;15.77;3.47;;;15.20;71.60;;;;;;4956508;28;20027;-85
2022/06/13 02:33:29;;;;;;;13.02;3.67;;;15.20;71.00;;;;;;4960599;28;20023;-84
2022/06/13 02:36:17;;;;;;;7.40;3.10;;;15.20;71.30;;;;;;4947861;28;20070;-85
2022/06/13 02:39:11;;;;;;;9.15;3.10;;;15.20;70.50;;;;;;4940983;29;20028;-85
2022/06/13 02:41:45;;;;;;;11.85;3.58;;;15.20;71.20;;;;;;4942418;29;20060;-85
2022/06/13 02:44:24;;;;;;;13.52;3.33;;;15.10;71.80;;;;;;4940892;29;20511;-85
2022/06/13 02:47:18;;;;;;;15.73;4.10;;;15.10;71.20;;;;;;4942845;29;20857;-85
2022/06/13 02:49:57;;;;;;;7.45;3.25;;;15.00;71.60;;;;;;4955421;29;20039;-84
2022/06/13 02:52:49;;;;;;;8.77;3.50;;;14.90;71.60;;;;;;4947444;29;20031;-84
2022/06/13 02:55:17;;;;;;;8.52;3.83;;;14.90;71.60;;;;;;4940777;29;20102;-85
2022/06/13 02:58:10;;;;;;;11.48;3.30;;;14.80;71.60;;;;;;4942396;29;20103;-85
2022/06/13 03:00:44;;;;;;;10.00;3.22;;;14.80;70.90;;;;;;4940671;29;20038;-85
2022/06/13 03:03:44;;;;;;;10.77;3.40;;;14.70;72.00;;;;;;4942336;29;20035;-83
2022/06/13 03:06:13;;;;;;;10.68;3.78;;;14.70;72.30;;;;;;4940033;29;20586;-85
2022/06/13 03:09:00;;;;;;;12.02;3.03;;;14.70;71.60;;;;;;4941788;29;20494;-85
2022/06/13 03:11:25;;;;;;;7.47;3.45;;;14.60;71.60;;;;;;4939128;29;20028;-85
2022/06/13 03:14:17;;;;;;;8.82;3.05;;;14.70;71.90;;;;;;4940040;29;20119;-85
2022/06/13 03:17:01;;;;;;;17.42;4.03;;;14.70;72.20;;;;;;4945056;29;20369;-85
2022/06/13 03:19:33;;;;;;;7.78;3.50;;;14.80;72.00;;;;;;4951080;28;20403;-85
2022/06/13 03:22:04;;;;;;;9.50;3.40;;;14.80;71.70;;;;;;4972840;28;20035;-85
2022/06/13 03:24:34;;;;;;;9.35;3.50;;;14.80;71.80;;;;;;4957952;28;20090;-85
2022/06/13 03:27:06;;;;;;;15.25;3.40;;;14.70;71.70;;;;;;4958371;28;20505;-85
2022/06/13 03:29:38;;;;;;;10.35;3.50;;;14.70;71.70;;;;;;4940207;29;20036;-85
2022/06/13 03:32:15;;;;;;;12.27;3.83;;;14.60;72.20;;;;;;4956557;29;20030;-85
2022/06/13 03:34:47;;;;;;;8.57;3.20;;;14.60;71.60;;;;;;4939992;29;20020;-86
2022/06/13 03:37:29;;;;;;;9.82;3.40;;;14.60;71.70;;;;;;4969491;28;20031;-85
2022/06/13 03:40:10;;;;;;;9.65;3.15;;;14.60;71.60;;;;;;4943465;29;20019;-85
2022/06/13 03:42:53;;;;;;;13.77;4.13;;;14.60;71.70;;;;;;4959466;28;20105;-85
2022/06/13 03:45:26;;;;;;;9.15;3.40;;;14.60;71.50;;;;;;4958364;28;20035;-85
2022/06/13 03:48:30;;;;;;;;;;;;;;;;;;;;;
2022/06/13 03:51:02;;;;;;;11.40;4.00;;;14.50;72.20;;;;;;4959769;29;20107;-85
2022/06/13 03:53:56;;;;;;;14.55;3.72;;;14.50;71.80;;;;;;4957111;28;20046;-85
2022/06/13 03:57:03;;;;;;;9.82;3.97;;;14.40;72.30;;;;;;4940724;29;20024;-85
2022/06/13 04:00:08;;;;;;;10.63;3.30;;;14.40;72.10;;;;;;4936979;29;20533;-85
2022/06/13 04:02:36;;;;;;;16.25;4.70;;;14.40;72.10;;;;;;4923099;29;20023;-86
2022/06/13 04:05:02;;;;;;;11.68;3.42;;;14.40;72.30;;;;;;4938258;29;20063;-86
2022/06/13 04:07:31;;;;;;;8.88;3.35;;;14.30;72.20;;;;;;4941408;29;20110;-85
2022/06/13 04:10:05;;;;;;;12.18;3.15;;;14.30;72.90;;;;;;4954050;29;20442;-85
2022/06/13 04:12:50;;;;;;;11.73;4.00;;;14.30;72.90;;;;;;4956064;28;20119;-85
2022/06/13 04:15:34;;;;;;;11.02;3.55;;;14.30;73.10;;;;;;4939222;29;20036;-85
2022/06/13 04:18:31;;;;;;;12.20;3.70;;;14.20;72.10;;;;;;4958174;29;20035;-85
2022/06/13 04:21:16;;;;;;;9.38;3.33;;;14.20;72.70;;;;;;4957080;28;20035;-85
2022/06/13 04:24:09;;;;;;;12.45;3.75;;;14.20;72.50;;;;;;4941579;28;20545;-85
2022/06/13 04:26:40;;;;;;;12.25;3.55;;;14.20;72.70;;;;;;4938976;29;20043;-85
2022/06/13 04:29:26;;;;;;;9.95;4.25;;;14.20;72.80;;;;;;4951551;29;20090;-85
2022/06/13 04:31:59;;;;;;;9.80;3.45;;;14.20;72.80;;;;;;4957138;28;20125;-85
2022/06/13 04:34:41;;;;;;;11.00;3.85;;;14.20;73.00;;;;;;4958176;28;20024;-85
2022/06/13 04:37:08;;;;;;;8.65;3.33;;;14.20;72.40;;;;;;4955897;28;20043;-85
2022/06/13 04:39:36;;;;;;;9.80;3.30;;;14.10;72.70;;;;;;4958217;28;20082;-85
2022/06/13 04:42:05;;;;;;;8.80;3.38;;;14.20;72.50;;;;;;4957785;28;20059;-85
2022/06/13 04:44:33;;;;;;;7.85;3.55;;;14.20;72.30;;;;;;4957894;28;20027;-85
2022/06/13 04:47:00;;;;;;;7.13;3.40;;;14.20;72.30;;;;;;4952692;28;20447;-85
2022/06/13 04:49:34;;;;;;;11.73;3.50;;;14.20;72.10;;;;;;4953290;28;20031;-84
2022/06/13 04:52:05;;;;;;;9.68;3.15;;;14.20;72.20;;;;;;4938630;29;20034;-85
2022/06/13 04:54:39;;;;;;;8.15;3.17;;;14.20;72.00;;;;;;4943881;29;20019;-85
2022/06/13 04:57:08;;;;;;;4.90;2.58;;;14.10;71.70;;;;;;4957705;28;20035;-86
2022/06/13 04:59:34;;;;;;;9.88;3.17;;;14.00;71.60;;;;;;4957610;28;20038;-87
2022/06/13 05:02:02;;;;;;;9.25;3.85;;;14.00;72.30;;;;;;4953943;28;20031;-89
2022/06/13 05:04:32;;;;;;;9.32;3.50;;;14.00;72.00;;;;;;4969800;28;20114;-89
2022/06/13 05:07:08;;;;;;;10.45;3.45;;;14.00;72.50;;;;;;4956422;28;20031;-87
2022/06/13 05:09:36;;;;;;;12.43;3.53;;;14.00;72.90;;;;;;4959127;28;20035;-89
2022/06/13 05:12:08;;;;;;;7.90;3.35;;;14.00;72.90;;;;;;4956105;28;20689;-87
2022/06/13 05:15:01;;;;;;;8.90;2.80;;;14.10;72.60;;;;;;4966283;28;20027;-87
2022/06/13 05:17:50;;;;;;;9.45;2.95;;;14.10;72.00;;;;;;4947708;29;20024;-88
2022/06/13 05:20:40;;;;;;;7.72;3.10;;;14.10;72.60;;;;;;4946409;29;20125;-85
2022/06/13 05:23:30;;;;;;;6.07;3.20;;;14.10;72.70;;;;;;4953104;28;20458;-82
2022/06/13 05:25:58;;;;;;;7.22;2.95;;;14.20;72.60;;;;;;4970257;28;20439;-82
2022/06/13 05:28:27;;;;;;;7.50;2.65;;;14.20;72.20;;;;;;4952045;28;20026;-88
2022/06/13 05:30:56;;;;;;;6.35;2.72;;;14.20;72.00;;;;;;4952046;29;20410;-87
2022/06/13 05:33:26;;;;;;;10.57;3.30;;;14.30;71.90;;;;;;4953272;29;20036;-88
2022/06/13 05:35:55;;;;;;;10.65;3.10;;;14.30;72.00;;;;;;4954548;28;20094;-88
2022/06/13 05:38:36;;;;;;;8.18;3.33;;;14.30;72.00;;;;;;4952107;29;20706;-88
2022/06/13 05:41:02;;;;;;;9.38;3.28;;;14.30;71.40;;;;;;4971901;28;20058;-87
2022/06/13 05:43:28;;;;;;;10.85;2.45;;;14.40;71.30;;;;;;4955875;28;20508;-87
2022/06/13 05:45:54;;;;;;;6.22;2.85;;;14.50;70.60;;;;;;4951951;28;20053;-85
2022/06/13 05:48:22;;;;;;;7.30;2.60;;;14.50;70.50;;;;;;4955155;28;20031;-85
2022/06/13 05:50:48;;;;;;;11.93;3.05;;;14.50;70.60;;;;;;4952867;29;20193;-82
2022/06/13 05:53:16;;;;;;;6.97;2.65;;;14.50;70.80;;;;;;4946932;28;20142;-79
2022/06/13 05:55:43;;;;;;;6.80;2.75;;;14.50;70.70;;;;;;4951250;28;20186;-81
2022/06/13 05:58:13;;;;;;;7.35;2.38;;;14.50;71.00;;;;;;4957470;28;20038;-83
2022/06/13 06:00:45;;;;;;;;;;;14.50;71.20;;;;;;4953595;28;20590;-81
2022/06/13 06:03:11;;;;;;;7.38;2.78;;;14.50;70.80;;;;;;4955728;29;19921;-85
2022/06/13 06:05:41;;;;;;;9.73;3.30;;;14.50;70.80;;;;;;4955323;28;20031;-80
2022/06/13 06:08:18;;;;;;;14.25;2.83;;;14.50;70.60;;;;;;4959152;28;20035;-83
2022/06/13 06:10:45;;;;;;;8.32;3.78;;;14.50;70.90;;;;;;4959307;28;20393;-84
2022/06/13 06:13:15;;;;;;;8.93;2.92;;;14.50;70.70;;;;;;4952879;28;20032;-87
2022/06/13 06:15:43;;;;;;;5.88;2.35;;;14.60;70.60;;;;;;4942750;29;20111;-94
2022/06/13 06:18:10;;;;;;;6.45;2.45;;;14.60;70.50;;;;;;4943957;29;20067;-89
2022/06/13 06:20:38;;;;;;;6.70;2.30;;;14.60;70.70;;;;;;4939618;29;20031;-89
2022/06/13 06:23:04;;;;;;;9.07;2.70;;;14.60;71.10;;;;;;4955006;29;20046;-86
2022/06/13 06:25:30;;;;;;;6.18;2.10;;;14.70;70.70;;;;;;4959158;28;20440;-86
2022/06/13 06:27:56;;;;;;;8.23;1.95;;;14.70;70.60;;;;;;4959306;28;20031;-87
2022/06/13 06:30:22;;;;;;;6.97;2.10;;;14.80;70.40;;;;;;4954331;29;20312;-86
2022/06/13 06:32:48;;;;;;;11.10;2.58;;;14.80;70.50;;;;;;4953315;29;20077;-86
2022/06/13 06:35:15;;;;;;;8.32;2.25;;;14.90;70.50;;;;;;4975440;28;20725;-89
2022/06/13 06:37:45;;;;;;;5.70;2.47;;;14.90;70.50;;;;;;4957986;28;20035;-88
2022/06/13 06:40:14;;;;;;;5.43;2.30;;;15.00;70.70;;;;;;4959036;28;20402;-88
2022/06/13 06:42:40;;;;;;;9.02;3.25;;;14.90;70.80;;;;;;4957773;28;20071;-89
2022/06/13 06:45:06;;;;;;;6.25;2.92;;;15.00;70.80;;;;;;4958808;29;20100;-89
2022/06/13 06:47:32;;;;;;;5.85;2.00;;;15.00;70.90;;;;;;4949930;28;20027;-88
2022/06/13 06:49:58;;;;;;;8.40;2.20;;;15.10;71.10;;;;;;4949896;29;20034;-89
2022/06/13 06:52:24;;;;;;;7.13;2.70;;;15.10;70.90;;;;;;4951132;29;20023;-88
2022/06/13 07:00:19;;;;;;;7.38;1.98;;;15.30;69.90;;;;;;4946216;29;20033;-88
2022/06/13 07:02:45;;;;;;;8.80;1.83;;;15.40;70.60;;;;;;4958816;28;20520;-89
2022/06/13 07:05:11;;;;;;;6.47;2.58;;;15.40;69.90;;;;;;4951306;29;20319;-90
2022/06/13 07:07:37;;;;;;;6.32;1.98;;;15.50;69.60;;;;;;4960823;28;20034;-90
2022/06/13 07:10:03;;;;;;;3.70;2.42;;;15.50;69.20;;;;;;4964087;28;20011;-88
2022/06/13 07:12:29;;;;;;;7.38;2.63;;;15.60;69.20;;;;;;4947619;29;20078;-89
2022/06/13 07:14:55;;;;;;;5.45;2.10;;;15.70;68.60;;;;;;4938548;29;20115;-89
2022/06/13 07:17:22;;;;;;;8.85;2.25;;;15.80;68.20;;;;;;4948701;28;20034;-87
2022/06/13 07:19:47;;;;;;;5.20;1.92;;;15.90;68.20;;;;;;4954591;28;20110;-87
2022/06/13 07:22:18;;;;;;;14.23;2.50;;;16.00;68.00;;;;;;4940450;29;20055;-88
2022/06/13 07:24:44;;;;;;;;;;;16.10;66.80;;;;;;4944202;28;20092;-87
2022/06/13 07:27:13;;;;;;;6.07;1.70;;;16.30;66.80;;;;;;4938721;29;20357;-88
2022/06/13 07:29:39;;;;;;;7.47;2.10;;;16.30;65.60;;;;;;4967308;28;20451;-88
2022/06/13 07:32:16;;;;;;;19.83;2.83;;;16.90;65.10;;;;;;4949126;29;20027;-89
2022/06/13 07:34:44;;;;;;;10.55;2.58;;;17.70;62.30;;;;;;4973701;28;20497;-88
2022/06/13 07:37:13;;;;;;;5.90;2.10;;;19.30;58.10;;;;;;4970263;28;20466;-88
2022/06/13 07:39:39;;;;;;;7.47;2.28;;;22.30;50.60;;;;;;4962468;28;20031;-88
2022/06/13 07:42:07;;;;;;;8.70;2.38;;;24.80;43.30;;;;;;4957480;29;20070;-87
2022/06/13 07:44:38;;;;;;;9.15;2.20;;;26.50;40.60;;;;;;4957149;29;20034;-88
2022/06/13 07:47:04;;;;;;;5.30;1.30;;;28.80;36.30;;;;;;4958831;28;20055;-88
2022/06/13 07:49:30;;;;;;;5.90;1.65;;;31.00;32.00;;;;;;4951169;28;20505;-87
2022/06/13 07:51:56;;;;;;;7.43;1.40;;;32.50;30.30;;;;;;4956908;29;20184;-88
2022/06/13 07:54:22;;;;;;;4.72;1.40;;;33.80;28.40;;;;;;4957627;28;20486;-87
2022/06/13 07:56:48;;;;;;;3.92;1.25;;;34.80;26.00;;;;;;4955503;29;20087;-88
2022/06/13 07:59:20;;;;;;;4.15;1.63;;;35.30;25.30;;;;;;4962429;28;20039;-88
2022/06/13 08:01:46;;;;;;;6.13;1.55;;;35.90;24.90;;;;;;4959626;28;20105;-88
2022/06/13 08:04:12;;;;;;;5.63;1.45;;;36.50;23.00;;;;;;4952792;28;20090;-90
2022/06/13 08:06:41;;;;;;;4.80;1.33;;;36.90;23.40;;;;;;4939248;29;20487;-89
2022/06/13 08:09:08;;;;;;;5.53;1.40;;;37.20;22.30;;;;;;4939285;29;20024;-88
2022/06/13 08:11:41;;;;;;;3.47;1.13;;;37.70;20.80;;;;;;4962962;28;20077;-89
2022/06/13 08:14:09;;;;;;;5.22;1.10;;;37.80;21.60;;;;;;4942501;28;20058;-89
2022/06/13 08:16:35;;;;;;;4.85;1.48;;;38.40;20.70;;;;;;4941808;29;20033;-89
2022/06/13 08:19:04;;;;;;;5.30;1.20;;;38.90;20.20;;;;;;4939037;28;20479;-88
2022/06/13 08:21:32;;;;;;;4.95;1.20;;;39.00;19.00;;;;;;4950832;29;20493;-88
2022/06/13 08:23:57;;;;;;;5.97;1.73;;;39.10;18.90;;;;;;4958281;28;20498;-88
2022/06/13 08:26:23;;;;;;;7.38;1.83;;;39.20;19.60;;;;;;4938783;28;20047;-88
2022/06/13 08:28:49;;;;;;;4.50;1.50;;;39.20;18.90;;;;;;4939776;29;20158;-87
2022/06/13 08:31:18;;;;;;;4.53;1.25;;;39.10;19.10;;;;;;4943916;28;20024;-88
2022/06/13 08:33:44;;;;;;;5.82;1.08;;;39.10;19.70;;;;;;4937459;29;20031;-89
2022/06/13 08:36:11;;;;;;;5.22;1.58;;;39.10;19.70;;;;;;4937433;29;20398;-89
2022/06/13 08:38:37;;;;;;;6.20;1.35;;;39.00;20.10;;;;;;4952889;28;20390;-89
2022/06/13 08:41:14;;;;;;;3.22;1.15;;;39.20;19.80;;;;;;4953196;29;20055;-89
2022/06/13 08:44:01;;;;;;;5.97;1.35;;;38.80;18.70;;;;;;4953028;28;20028;-90
2022/06/13 08:46:39;;;;;;;3.67;0.83;;;38.70;19.00;;;;;;4940145;29;20390;-89
2022/06/13 08:49:38;;;;;;;4.32;1.10;;;38.90;19.20;;;;;;4952996;28;20354;-89
2022/06/13 08:52:27;;;;;;;3.20;1.23;;;38.90;19.90;;;;;;4971944;28;20039;-90
2022/06/13 08:55:10;;;;;;;4.78;1.33;;;39.10;18.80;;;;;;4954229;28;20386;-90
2022/06/13 08:57:39;;;;;;;3.53;0.90;;;39.30;19.10;;;;;;4953921;29;20031;-88
2022/06/13 09:00:10;;;;;;;4.47;1.20;;;39.30;19.40;;;;;;4970376;28;20027;-88
2022/06/13 09:02:53;;;;;;;4.88;1.13;;;39.30;18.90;;;;;;4961599;28;20094;-88
2022/06/13 09:05:34;;;;;;;5.15;1.33;;;39.30;18.00;;;;;;4955036;29;20422;-89
2022/06/13 09:08:24;;;;;;;4.28;1.38;;;39.40;19.20;;;;;;4968716;28;20027;-88
2022/06/13 09:11:28;;;;;;;5.82;1.38;;;39.30;18.70;;;;;;4947801;28;20035;-90
2022/06/13 09:14:25;;;;;;;4.10;1.70;;;39.20;18.80;;;;;;4965996;28;20059;-88
2022/06/13 09:17:06;;;;;;;4.28;1.38;;;39.40;18.90;;;;;;4949877;29;20128;-87
2022/06/13 09:19:40;;;;;;;3.05;0.95;;;39.60;18.30;;;;;;4956306;29;20031;-88
2022/06/13 09:22:21;;;;;;;4.00;1.17;;;39.60;18.10;;;;;;4938841;28;20499;-88
2022/06/13 09:25:01;;;;;;;3.33;0.90;;;39.30;18.30;;;;;;4938117;29;20086;-88
2022/06/13 09:27:55;;;;;;;3.33;0.90;;;39.60;18.30;;;;;;4946543;29;20380;-91
2022/06/13 09:30:26;;;;;;;2.75;1.10;;;39.40;18.60;;;;;;4951200;28;20122;-88
2022/06/13 09:32:58;;;;;;;4.13;1.05;;;39.70;18.10;;;;;;4952331;28;20122;-86
2022/06/13 09:35:29;;;;;;;5.03;1.10;;;39.80;17.80;;;;;;4937896;29;20031;-90
2022/06/13 09:38:03;;;;;;;4.80;1.00;;;39.80;18.10;;;;;;4952760;28;20479;-88
2022/06/13 09:40:34;;;;;;;4.95;1.10;;;39.90;17.70;;;;;;4938164;29;20032;-88
2022/06/13 09:43:08;;;;;;;4.00;1.23;;;40.00;18.90;;;;;;4938617;29;20053;-89
2022/06/13 09:45:46;;;;;;;4.78;1.05;;;40.10;18.40;;;;;;4956277;29;20073;-85
2022/06/13 09:48:40;;;;;;;5.78;1.02;;;40.10;18.20;;;;;;4952778;28;20070;-85
2022/06/13 09:51:15;;;;;;;4.22;1.30;;;40.00;17.80;;;;;;4944176;28;20032;-86
2022/06/13 09:53:58;;;;;;;5.32;1.27;;;40.00;18.30;;;;;;4953212;28;20051;-86
2022/06/13 09:56:43;;;;;;;4.93;1.35;;;40.10;17.90;;;;;;4953689;29;20059;-86
2022/06/13 09:59:31;;;;;;;4.57;1.33;;;40.20;17.60;;;;;;4951542;28;20027;-85
2022/06/13 10:02:05;;;;;;;2.25;1.02;;;40.30;18.10;;;;;;4963727;28;20806;-86
2022/06/13 10:05:06;;;;;;;4.13;1.23;;;40.10;18.30;;;;;;4956293;29;20031;-86
2022/06/13 10:07:55;;;;;;;4.50;1.05;;;39.90;17.90;;;;;;4944569;28;20044;-88
2022/06/13 10:10:40;;;;;;;3.88;1.33;;;39.80;17.90;;;;;;4947361;29;20100;-86
2022/06/13 10:13:24;;;;;;;4.45;1.30;;;39.50;18.50;;;;;;4955762;28;20051;-86
2022/06/13 10:16:08;;;;;;;5.60;1.23;;;39.40;18.30;;;;;;4954720;29;20728;-86
2022/06/13 10:18:48;;;;;;;3.92;1.20;;;39.20;18.60;;;;;;4955960;29;20051;-86
2022/06/13 10:21:34;;;;;;;5.03;1.15;;;39.10;19.60;;;;;;4953152;29;20139;-86
2022/06/13 10:24:25;;;;;;;3.90;1.00;;;39.20;19.60;;;;;;4953002;29;20031;-89
2022/06/13 10:27:13;;;;;;;3.63;1.17;;;38.90;19.30;;;;;;4952210;28;20425;-86
2022/06/13 10:29:41;;;;;;;6.15;1.30;;;38.40;19.50;;;;;;4941381;29;20110;-86
2022/06/13 10:32:32;;;;;;;4.72;1.10;;;38.20;20.00;;;;;;4952668;28;20035;-85
2022/06/13 10:35:43;;;;;;;4.20;1.05;;;38.00;19.50;;;;;;4949829;29;20024;-85
2022/06/13 10:39:01;;;;;;;5.20;1.20;;;37.40;20.40;;;;;;4944052;29;20110;-85
2022/06/13 10:41:28;;;;;;;4.68;1.17;;;36.60;21.10;;;;;;4953058;28;20051;-84
2022/06/13 10:43:55;;;;;;;5.50;1.30;;;35.40;21.60;;;;;;4949585;29;20031;-85
2022/06/13 10:46:21;;;;;;;4.68;1.00;;;34.30;22.90;;;;;;4936278;29;20486;-84
2022/06/13 10:48:57;;;;;;;3.40;0.80;;;33.50;24.30;;;;;;4937270;29;20058;-85
2022/06/13 10:51:22;;;;;;;5.53;1.08;;;32.80;25.90;;;;;;4952424;28;20056;-83
2022/06/13 10:54:11;;;;;;;4.78;1.10;;;32.40;26.10;;;;;;4940936;29;20055;-85
2022/06/13 10:56:59;;;;;;;6.35;1.30;;;31.80;26.80;;;;;;4940848;29;20115;-82
2022/06/13 10:59:31;;;;;;;3.72;0.93;;;31.30;27.20;;;;;;4954123;29;20035;-82
2022/06/13 11:02:00;;;;;;;4.28;0.88;;;30.90;27.20;;;;;;4955576;29;20027;-83
2022/06/13 11:04:27;;;;;;;;;;;30.70;27.90;;;;;;4952788;28;20035;-88
2022/06/13 11:06:57;;;;;;;4.93;1.30;;;30.50;28.60;;;;;;4937468;29;19958;-86
2022/06/13 11:09:22;;;;;;;;;;;30.10;29.10;;;;;;4940251;29;20024;-86
2022/06/13 11:12:01;;;;;;;4.32;1.00;;;29.90;28.70;;;;;;4946562;29;19911;-82
2022/06/13 11:14:33;;;;;;;3.17;0.98;;;29.80;30.10;;;;;;4941010;29;20024;-85
2022/06/13 11:22:38;;;;;;;3.38;1.10;;;29.70;29.40;;;;;;4958427;29;20034;-83
2022/06/13 11:25:23;;;;;;;4.47;1.20;;;29.30;30.20;;;;;;4957976;28;20038;-89
2022/06/13 11:28:05;;;;;;;4.47;1.08;;;29.20;29.80;;;;;;4959695;29;20015;-84
2022/06/13 11:31:03;;;;;;;3.88;1.27;;;28.90;29.80;;;;;;4958521;28;20121;-83
2022/06/13 11:33:32;;;;;;;2.33;1.25;;;28.90;30.90;;;;;;4955604;29;20051;-83
2022/06/13 11:36:16;;;;;;;4.10;1.25;;;28.90;30.90;;;;;;4957923;28;20400;-81
2022/06/13 11:38:56;;;;;;;4.63;1.30;;;28.80;30.40;;;;;;4949170;28;20040;-84
2022/06/13 11:41:40;;;;;;;6.93;2.15;;;28.80;29.70;;;;;;4954321;29;20055;-88
2022/06/13 11:44:15;;;;;;;5.32;1.40;;;28.60;30.50;;;;;;4948694;29;20027;-86
2022/06/13 11:46:52;;;;;;;4.00;1.42;;;28.40;30.80;;;;;;4957894;28;20093;-91
2022/06/13 11:49:18;;;;;;;2.83;1.30;;;28.30;31.70;;;;;;4958195;28;20031;-88
2022/06/13 11:51:59;;;;;;;2.92;0.98;;;28.30;31.00;;;;;;4955251;29;20126;-88
2022/06/13 11:54:54;;;;;;;2.58;1.10;;;28.30;31.10;;;;;;4939689;29;20070;-89
2022/06/13 11:57:20;;;;;;;2.75;1.20;;;28.30;32.40;;;;;;4939919;29;20031;-89
2022/06/13 11:59:49;;;;;;;6.45;1.33;;;28.30;31.70;;;;;;4938634;29;20487;-87
2022/06/13 12:02:26;;;;;;;5.97;1.20;;;28.30;32.20;;;;;;4946328;29;20050;-87
2022/06/13 12:04:55;;;;;;;3.35;1.10;;;28.30;32.40;;;;;;4957457;28;20031;-89
2022/06/13 12:07:29;;;;;;;3.85;1.10;;;28.30;32.70;;;;;;4956532;28;20059;-86
2022/06/13 12:09:58;;;;;;;3.63;1.05;;;28.20;32.10;;;;;;4953652;29;20635;-85
2022/06/13 12:12:43;;;;;;;5.80;1.40;;;28.20;33.50;;;;;;4949760;28;20065;-87
2022/06/13 12:15:12;;;;;;;2.75;1.10;;;28.10;32.60;;;;;;4957014;28;20035;-87
2022/06/13 12:17:56;;;;;;;9.77;1.20;;;27.90;32.90;;;;;;4953699;28;20122;-86
2022/06/13 12:20:27;;;;;;;3.67;1.25;;;27.80;32.90;;;;;;4950013;29;20050;-85
2022/06/13 12:23:03;;;;;;;5.32;1.50;;;27.80;32.70;;;;;;4941942;29;20039;-85
2022/06/13 12:25:49;;;;;;;5.65;1.27;;;27.80;32.20;;;;;;4958098;28;20402;-84
2022/06/13 12:28:21;;;;;;;3.30;1.40;;;27.70;32.80;;;;;;4954493;28;20035;-85
2022/06/13 12:30:47;;;;;;;4.32;1.27;;;27.40;33.90;;;;;;4950509;28;20075;-84
2022/06/13 12:33:43;;;;;;;5.55;1.50;;;27.50;33.80;;;;;;4947065;29;20029;-85
2022/06/13 12:36:50;;;;;;;5.40;1.98;;;27.60;32.40;;;;;;4970268;28;20028;-85
2022/06/13 12:39:28;;;;;;;4.93;1.83;;;27.50;33.20;;;;;;4954627;29;20426;-85
2022/06/13 12:42:12;;;;;;;7.07;1.50;;;27.60;33.30;;;;;;4944660;29;20087;-84
2022/06/13 12:44:41;;;;;;;2.83;1.33;;;27.60;33.30;;;;;;4952053;28;20043;-84
2022/06/13 12:47:16;;;;;;;4.15;1.38;;;27.60;33.20;;;;;;4962817;28;20031;-84
2022/06/13 12:49:53;;;;;;;5.50;1.50;;;27.50;33.00;;;;;;4963291;28;20040;-82
2022/06/13 12:53:10;;;;;;;5.45;1.50;;;27.30;34.80;;;;;;4947402;29;20020;-82
2022/06/13 12:55:53;;;;;;;2.17;1.20;;;27.40;34.90;;;;;;4957733;28;20066;-83
2022/06/13 12:58:36;;;;;;;3.42;1.35;;;27.50;34.60;;;;;;4949083;29;20034;-84
2022/06/13 13:01:14;;;;;;;2.83;1.02;;;27.30;32.60;;;;;;4942321;29;20071;-85
2022/06/13 13:03:58;;;;;;;4.90;1.52;;;27.10;34.40;;;;;;4946526;28;20096;-84
2022/06/13 13:06:51;;;;;;;4.72;1.40;;;27.30;34.70;;;;;;4953872;29;20070;-85
2022/06/13 13:09:27;;;;;;;5.30;1.38;;;27.30;34.40;;;;;;4956113;29;20023;-82
2022/06/13 13:12:13;;;;;;;3.88;1.38;;;27.50;33.70;;;;;;4955414;29;20046;-84
2022/06/13 13:14:47;;;;;;;3.00;1.20;;;27.50;33.40;;;;;;4948270;28;20032;-81
2022/06/13 13:17:50;;;;;;;4.55;1.52;;;27.60;33.60;;;;;;4955724;29;20167;-82
2022/06/13 13:20:25;;;;;;;6.40;1.45;;;27.60;34.10;;;;;;4963092;28;20054;-81
2022/06/13 13:23:00;;;;;;;4.57;1.38;;;27.50;33.00;;;;;;4962249;28;20083;-84
2022/06/13 13:26:12;;;;;;;4.10;1.27;;;27.60;33.40;;;;;;4954202;29;20037;-83
2022/06/13 13:28:41;;;;;;;2.83;1.30;;;27.50;33.60;;;;;;4945667;29;20034;-82
2022/06/13 13:31:17;;;;;;;4.65;1.38;;;27.60;33.20;;;;;;4948295;28;20024;-82
2022/06/13 13:34:12;;;;;;;4.78;1.77;;;27.60;33.20;;;;;;4954315;29;20039;-83
2022/06/13 13:36:52;;;;;;;3.83;1.25;;;27.50;33.80;;;;;;4956210;29;20485;-83
2022/06/13 13:39:25;;;;;;;7.35;1.50;;;27.60;32.40;;;;;;4955790;29;20402;-84
2022/06/13 13:42:06;;;;;;;6.75;1.30;;;27.50;33.10;;;;;;4945352;28;20051;-84
2022/06/13 13:44:50;;;;;;;3.92;1.10;;;27.30;33.60;;;;;;4953469;29;20039;-84
2022/06/13 13:47:21;;;;;;;6.63;1.60;;;27.30;33.70;;;;;;4955444;29;20035;-83